Skip Navigation LinksHome page > Weather > Current weather Skip Navigation Links

Current Weather

Eureka, Nunavut

For information only: do not use for flight planning or navigation.
Latest weather
Observation time Friday, April 24, 2015 10:00 PM CDT
Local time Friday, April 24, 2015 11:12 PM CDT
Flight conditions Visual Meteorological Conditions
Winds
Wind direction Northeast (50°)
Wind speed 2 mph
Visibility 15 mi.
Sky condition
Ceiling unlimited
Sky clear
Temperature -2°F
Dewpoint -11°F
Altimeter 30.88 in.Hg
Derived measurements
Relative humidity 64%
Wind chill -2°F
Density altitude -5405 ft.
Sea-level pressure 30.89 in.Hg
Remarks
Last observation of the day.
METAR CWEU 250300Z 05002KT 15SM SKC M19/M24 A3088 RMK LAST OBS/NEXT 250600Z SNW CVR/MEDIUM PACK SLP461

Settings

Location code

InnerDrive.Weather 4.0.5567.0 Release CLR 4.0.30319.34014
Copyright ©2015 Inner Drive Technology. All rights reserved. Portions Copyright ©1986-2015 David Braverman.

Find weather

Site navigation


Skip Navigation Links

Place info

Page info

PayPal - The safer, easier way to pay online!

Return home.

Copyright ©2015 Inner Drive Technology. Purveyors of fine, hand-crafted computer software. Page printed 2015-04-25T04:12:40 UTC.